Time,TemperatureF,DewpointF,PressureIn,WindDirection,WindDirectionDegrees,WindSpeedMPH,WindSpeedGustMPH,Humidity,HourlyPrecipIn,Conditions,Clouds,dailyrainin,SoftwareType,DateUTC
2013-04-04 00:00:00,38.1,21.5,30.23,East,80,0.0,0.0,51,0.00,BKN,,0.00,WeatherDisplay:10.37,2013-04-04 05:00:00,
2013-04-04 00:05:00,38.1,21.5,30.22,East,80,0.0,0.0,51,0.00,BKN,,0.00,WeatherDisplay:10.37,2013-04-04 05:05:00,
2013-04-04 00:10:00,37.9,21.8,30.22,East,80,0.0,0.0,52,0.00,BKN,,0.00,WeatherDisplay:10.37,2013-04-04 05:10:00,
2013-04-04 00:15:00,37.8,21.7,30.22,East,80,0.0,0.0,52,0.00,BKN,,0.00,WeatherDisplay:10.37,2013-04-04 05:15:00,
2013-04-04 00:20:00,37.7,21.6,30.22,East,80,0.0,0.0,52,0.00,BKN,,0.00,WeatherDisplay:10.37,2013-04-04 05:20:00,
2013-04-04 00:30:00,37.4,21.4,30.21,East,80,0.0,0.0,52,0.00,BKN,,0.00,WeatherDisplay:10.37,2013-04-04 05:30:00,
2013-04-04 00:35:00,37.3,21.7,30.21,East,80,0.0,1.0,53,0.00,BKN,,0.00,WeatherDisplay:10.37,2013-04-04 05:35:00,
2013-04-04 00:45:00,37.1,21.5,30.21,East,80,0.0,0.0,53,0.00,BKN,,0.00,WeatherDisplay:10.37,2013-04-04 05:45:00,
2013-04-04 00:50:00,37.0,21.9,30.20,East,80,0.0,1.0,54,0.00,BKN,,0.00,WeatherDisplay:10.37,2013-04-04 05:50:00,
2013-04-04 01:05:00,37.0,22.3,30.20,East,80,0.0,0.0,55,0.00,OVC,,0.00,WeatherDisplay:10.37,2013-04-04 06:05:00,
2013-04-04 01:10:00,37.0,21.9,30.21,East,80,0.0,1.0,54,0.00,OVC,,0.00,WeatherDisplay:10.37,2013-04-04 06:10:00,
2013-04-04 01:15:00,37.1,22.4,30.20,East,80,0.0,0.0,55,0.00,OVC,,0.00,WeatherDisplay:10.37,2013-04-04 06:15:00,
2013-04-04 01:25:00,37.3,22.1,30.20,East,80,0.0,0.0,54,0.00,OVC,,0.00,WeatherDisplay:10.37,2013-04-04 06:25:00,
2013-04-04 01:30:00,37.4,22.7,30.20,East,80,0.0,0.0,55,0.00,OVC,,0.00,WeatherDisplay:10.37,2013-04-04 06:30:00,
2013-04-04 01:40:00,37.5,22.8,30.20,East,80,0.0,2.0,55,0.00,OVC,,0.00,WeatherDisplay:10.37,2013-04-04 06:40:00,
2013-04-04 01:45:00,37.7,23.4,30.20,East,80,0.0,2.0,56,0.00,OVC,,0.00,WeatherDisplay:10.37,2013-04-04 06:45:00,
2013-04-04 01:55:00,38.3,23.5,30.20,East,80,0.0,0.0,55,0.00,OVC,,0.00,WeatherDisplay:10.37,2013-04-04 06:55:00,
2013-04-04 02:05:00,39.2,23.1,30.19,East,80,0.0,2.0,52,0.00,OVC,,0.00,WeatherDisplay:10.37,2013-04-04 07:05:00,
2013-04-04 02:10:00,39.7,23.5,30.20,East,79,0.0,1.0,52,0.00,OVC,,0.00,WeatherDisplay:10.37,2013-04-04 07:10:00,
2013-04-04 02:20:00,40.4,23.7,30.19,East,79,0.0,3.0,51,0.00,OVC,,0.00,WeatherDisplay:10.37,2013-04-04 07:20:00,
2013-04-04 02:30:00,40.7,23.5,30.20,ENE,78,0.0,0.0,50,0.00,OVC,,0.00,WeatherDisplay:10.37,2013-04-04 07:30:00,
2013-04-04 02:40:00,40.7,24.0,30.19,ENE,78,0.0,1.0,51,0.00,OVC,,0.00,WeatherDisplay:10.37,2013-04-04 07:40:00,
2013-04-04 02:45:00,40.7,24.4,30.19,ENE,78,0.0,3.0,52,0.00,OVC,,0.00,WeatherDisplay:10.37,2013-04-04 07:45:00,
2013-04-04 02:50:00,40.7,24.4,30.19,ENE,78,0.0,1.0,52,0.00,OVC,,0.00,WeatherDisplay:10.37,2013-04-04 07:50:00,
2013-04-04 03:00:00,40.5,24.3,30.19,ENE,78,0.0,1.0,52,0.00,OVC,,0.00,WeatherDisplay:10.37,2013-04-04 08:00:00,
2013-04-04 03:05:00,40.5,24.3,30.19,ENE,78,0.0,0.0,52,0.00,OVC,,0.00,WeatherDisplay:10.37,2013-04-04 08:05:00,
2013-04-04 03:10:00,40.5,24.3,30.19,ENE,78,0.0,0.0,52,0.00,OVC,,0.00,WeatherDisplay:10.37,2013-04-04 08:10:00,
2013-04-04 03:20:00,40.5,24.7,30.18,ENE,78,0.0,1.0,53,0.00,OVC,,0.00,WeatherDisplay:10.37,2013-04-04 08:20:00,
2013-04-04 03:30:00,40.3,24.9,30.18,ENE,78,0.0,0.0,54,0.00,OVC,,0.00,WeatherDisplay:10.37,2013-04-04 08:30:00,
2013-04-04 03:35:00,40.1,24.3,30.18,ENE,78,0.0,0.0,53,0.00,OVC,,0.00,WeatherDisplay:10.37,2013-04-04 08:35:00,
2013-04-04 03:40:00,40.1,24.3,30.17,ENE,78,0.0,0.0,53,0.00,OVC,,0.00,WeatherDisplay:10.37,2013-04-04 08:40:00,
2013-04-04 03:45:00,40.1,24.3,30.18,ENE,78,0.0,0.0,53,0.00,OVC,,0.00,WeatherDisplay:10.37,2013-04-04 08:45:00,
2013-04-04 03:50:00,40.3,24.5,30.17,ENE,78,0.0,1.0,53,0.00,OVC,,0.00,WeatherDisplay:10.37,2013-04-04 08:50:00,
2013-04-04 04:00:00,40.6,24.8,30.17,ENE,78,0.0,3.0,53,0.00,OVC,,0.00,WeatherDisplay:10.37,2013-04-04 09:00:00,
2013-04-04 04:05:00,40.7,24.9,30.17,ENE,78,0.0,3.0,53,0.00,OVC,,0.00,WeatherDisplay:10.37,2013-04-04 09:05:00,
2013-04-04 04:10:00,40.7,24.9,30.17,ENE,78,0.0,2.0,53,0.00,OVC,,0.00,WeatherDisplay:10.37,2013-04-04 09:10:00,
2013-04-04 04:15:00,40.7,24.9,30.17,ENE,78,0.0,1.0,53,0.00,OVC,,0.00,WeatherDisplay:10.37,2013-04-04 09:15:00,
2013-04-04 04:25:00,40.7,24.9,30.17,ENE,78,0.0,2.0,53,0.00,OVC,,0.00,WeatherDisplay:10.37,2013-04-04 09:25:00,
2013-04-04 04:30:00,40.7,24.9,30.17,ENE,78,0.0,2.0,53,0.00,OVC,,0.00,WeatherDisplay:10.37,2013-04-04 09:30:00,
2013-04-04 04:35:00,40.9,25.1,30.17,ENE,78,0.0,2.0,53,0.00,OVC,,0.00,WeatherDisplay:10.37,2013-04-04 09:35:00,
2013-04-04 04:40:00,40.8,25.0,30.17,ENE,78,0.0,1.0,53,0.00,OVC,,0.00,WeatherDisplay:10.37,2013-04-04 09:40:00,
2013-04-04 04:45:00,40.9,25.0,30.17,ENE,78,0.0,0.0,53,0.00,OVC,,0.00,WeatherDisplay:10.37,2013-04-04 09:45:00,
2013-04-04 04:55:00,40.7,24.9,30.16,ENE,78,0.0,0.0,53,0.00,OVC,,0.00,WeatherDisplay:10.37,2013-04-04 09:55:00,
2013-04-04 05:00:00,40.7,25.8,30.17,ENE,78,0.0,0.0,55,0.00,OVC,,0.00,WeatherDisplay:10.37,2013-04-04 10:00:00,
2013-04-04 05:05:00,40.5,25.2,30.16,ENE,78,0.0,1.0,54,0.00,OVC,,0.00,WeatherDisplay:10.37,2013-04-04 10:05:00,
2013-04-04 05:10:00,40.4,25.5,30.17,ENE,78,0.0,0.0,55,0.00,OVC,,0.00,WeatherDisplay:10.37,2013-04-04 10:10:00,
2013-04-04 05:20:00,40.3,25.8,30.17,ENE,78,0.0,0.0,56,0.00,OVC,,0.00,WeatherDisplay:10.37,2013-04-04 10:20:00,
2013-04-04 05:25:00,40.3,25.4,30.17,ENE,78,0.0,0.0,55,0.00,OVC,,0.00,WeatherDisplay:10.37,2013-04-04 10:25:00,
2013-04-04 05:35:00,40.3,25.8,30.17,ENE,71,0.0,2.0,56,0.00,OVC,,0.00,WeatherDisplay:10.37,2013-04-04 10:35:00,
2013-04-04 05:40:00,40.3,25.8,30.17,NE,43,0.0,1.0,56,0.00,OVC,,0.00,WeatherDisplay:10.37,2013-04-04 10:40:00,
2013-04-04 05:50:00,40.1,25.6,30.17,NNE,30,0.0,2.0,56,0.00,OVC,,0.00,WeatherDisplay:10.37,2013-04-04 10:50:00,
2013-04-04 05:55:00,40.0,25.6,30.17,NNE,28,0.0,1.0,56,0.00,OVC,,0.00,WeatherDisplay:10.37,2013-04-04 10:55:00,
2013-04-04 06:05:00,39.7,25.7,30.16,North,8,0.0,1.0,57,0.00,SCT,,0.00,WeatherDisplay:10.37,2013-04-04 11:05:00,
2013-04-04 06:10:00,39.6,25.6,30.16,North,3,0.0,0.0,57,0.00,SCT,,0.00,WeatherDisplay:10.37,2013-04-04 11:10:00,
2013-04-04 06:20:00,38.9,25.4,30.16,North,3,0.0,0.0,58,0.00,SCT,,0.00,WeatherDisplay:10.37,2013-04-04 11:20:00,
2013-04-04 06:30:00,38.0,24.9,30.16,North,3,0.0,0.0,59,0.00,SCT,,0.00,WeatherDisplay:10.37,2013-04-04 11:30:00,
2013-04-04 06:40:00,37.1,24.5,30.16,North,3,0.0,0.0,60,0.00,SCT,,0.00,WeatherDisplay:10.37,2013-04-04 11:40:00,
2013-04-04 06:50:00,36.4,24.6,30.16,North,3,0.0,0.0,62,0.00,SCT,,0.00,WeatherDisplay:10.37,2013-04-04 11:50:00,
2013-04-04 07:00:00,36.0,24.6,30.17,North,3,0.0,0.0,63,0.00,SCT,,0.00,WeatherDisplay:10.37,2013-04-04 12:00:00,
2013-04-04 07:10:00,36.0,25.0,30.17,North,3,0.0,0.0,64,0.00,OVC,,0.00,WeatherDisplay:10.37,2013-04-04 12:10:00,
2013-04-04 07:15:00,36.1,25.5,30.17,North,3,0.0,2.0,65,0.00,OVC,,0.00,WeatherDisplay:10.37,2013-04-04 12:15:00,
2013-04-04 07:20:00,36.4,25.4,30.17,North,3,0.0,0.0,64,0.00,OVC,,0.00,WeatherDisplay:10.37,2013-04-04 12:20:00,
2013-04-04 07:30:00,37.4,25.1,30.17,North,3,0.0,1.0,61,0.00,OVC,,0.00,WeatherDisplay:10.37,2013-04-04 12:30:00,
2013-04-04 07:40:00,38.1,25.8,30.17,North,3,0.0,0.0,61,0.00,OVC,,0.00,WeatherDisplay:10.37,2013-04-04 12:40:00,
2013-04-04 07:50:00,38.7,26.0,30.17,North,3,0.0,0.0,60,0.00,OVC,,0.00,WeatherDisplay:10.37,2013-04-04 12:50:00,
2013-04-04 07:55:00,38.8,26.1,30.16,North,3,0.0,0.0,60,0.00,OVC,,0.00,WeatherDisplay:10.37,2013-04-04 12:55:00,
2013-04-04 08:00:00,39.0,25.9,30.17,North,3,0.0,0.0,59,0.00,OVC,,0.00,WeatherDisplay:10.37,2013-04-04 13:00:00,
2013-04-04 08:10:00,39.1,26.4,30.17,North,3,0.0,0.0,60,0.00,OVC,,0.00,WeatherDisplay:10.37,2013-04-04 13:10:00,
2013-04-04 08:20:00,39.4,26.2,30.16,North,3,0.0,0.0,59,0.00,OVC,,0.00,WeatherDisplay:10.37,2013-04-04 13:20:00,
2013-04-04 08:30:00,39.7,25.7,30.16,North,3,0.0,1.0,57,0.00,OVC,,0.00,WeatherDisplay:10.37,2013-04-04 13:30:00,
2013-04-04 08:40:00,39.8,25.8,30.17,North,3,0.0,0.0,57,0.00,OVC,,0.00,WeatherDisplay:10.37,2013-04-04 13:40:00,
2013-04-04 08:45:00,40.0,26.8,30.16,North,3,0.0,0.0,59,0.00,OVC,,0.00,WeatherDisplay:10.37,2013-04-04 13:45:00,
2013-04-04 08:55:00,41.1,27.5,30.16,North,3,1.0,3.0,58,0.00,OVC,,0.00,WeatherDisplay:10.37,2013-04-04 13:55:00,
2013-04-04 09:00:00,41.8,27.7,30.16,North,6,0.0,3.0,57,0.00,OVC,,0.00,WeatherDisplay:10.37,2013-04-04 14:00:00,
2013-04-04 09:10:00,43.4,27.4,30.16,North,10,0.0,1.0,53,0.00,SCT,,0.00,WeatherDisplay:10.37,2013-04-04 14:10:00,
2013-04-04 09:20:00,44.9,27.9,30.15,North,8,0.0,1.0,51,0.00,SCT,,0.00,WeatherDisplay:10.37,2013-04-04 14:20:00,
2013-04-04 09:25:00,45.6,28.0,30.16,North,8,0.0,4.0,50,0.00,SCT,,0.00,WeatherDisplay:10.37,2013-04-04 14:25:00,
2013-04-04 09:35:00,46.8,28.6,30.15,North,357,2.0,5.0,49,0.00,SCT,,0.00,WeatherDisplay:10.37,2013-04-04 14:35:00,
2013-04-04 09:40:00,46.8,28.1,30.15,North,0,2.0,4.0,48,0.00,SCT,,0.00,WeatherDisplay:10.37,2013-04-04 14:40:00,
2013-04-04 09:50:00,47.7,27.4,30.15,NNW,337,2.0,7.0,45,0.00,SCT,,0.00,WeatherDisplay:10.37,2013-04-04 14:50:00,
2013-04-04 10:05:00,48.2,28.3,30.15,NW,315,2.0,5.0,46,0.00,CLR,,0.00,WeatherDisplay:10.37,2013-04-04 15:05:00,
2013-04-04 10:10:00,48.4,27.5,30.15,North,349,3.0,7.0,44,0.00,CLR,,0.00,WeatherDisplay:10.37,2013-04-04 15:10:00,
2013-04-04 10:15:00,48.6,28.2,30.15,NNW,346,1.0,7.0,45,0.00,CLR,,0.00,WeatherDisplay:10.37,2013-04-04 15:15:00,
2013-04-04 10:20:00,49.1,28.7,30.14,NW,324,3.0,6.0,45,0.00,CLR,,0.00,WeatherDisplay:10.37,2013-04-04 15:20:00,
2013-04-04 10:30:00,49.9,27.7,30.15,NNW,344,3.0,8.0,42,0.00,CLR,,0.00,WeatherDisplay:10.37,2013-04-04 15:30:00,
2013-04-04 10:40:00,49.6,26.8,30.15,WNW,301,3.0,10.0,41,0.00,CLR,,0.00,WeatherDisplay:10.37,2013-04-04 15:40:00,
2013-04-04 10:50:00,50.2,28.5,30.15,NW,316,1.0,10.0,43,0.00,CLR,,0.00,WeatherDisplay:10.37,2013-04-04 15:50:00,
2013-04-04 11:00:00,50.6,27.1,30.15,NNW,336,2.0,6.0,40,0.00,CLR,,0.00,WeatherDisplay:10.37,2013-04-04 16:00:00,
2013-04-04 11:05:00,50.8,26.7,30.15,NW,322,3.0,10.0,39,0.00,CLR,,0.00,WeatherDisplay:10.37,2013-04-04 16:05:00,
2013-04-04 11:10:00,51.0,26.3,30.14,NNW,346,2.0,8.0,38,0.00,CLR,,0.00,WeatherDisplay:10.37,2013-04-04 16:10:00,
2013-04-04 11:15:00,51.5,28.0,30.14,North,3,5.0,7.0,40,0.00,CLR,,0.00,WeatherDisplay:10.37,2013-04-04 16:15:00,
2013-04-04 11:20:00,52.0,27.2,30.15,North,3,3.0,9.0,38,0.00,CLR,,0.00,WeatherDisplay:10.37,2013-04-04 16:20:00,
2013-04-04 11:30:00,52.9,28.6,30.15,NNW,338,2.0,7.0,39,0.00,CLR,,0.00,WeatherDisplay:10.37,2013-04-04 16:30:00,
2013-04-04 11:40:00,53.4,28.4,30.15,NNW,341,5.0,9.0,38,0.00,CLR,,0.00,WeatherDisplay:10.37,2013-04-04 16:40:00,
2013-04-04 11:50:00,53.5,28.5,30.14,North,4,6.0,9.0,38,0.00,CLR,,0.00,WeatherDisplay:10.37,2013-04-04 16:50:00,
2013-04-04 12:00:00,53.7,28.7,30.14,North,10,2.0,8.0,38,0.00,CLR,,0.00,WeatherDisplay:10.37,2013-04-04 17:00:00,
2013-04-04 12:05:00,53.7,27.4,30.13,NNE,12,2.0,6.0,36,0.00,CLR,,0.00,WeatherDisplay:10.37,2013-04-04 17:05:00,
2013-04-04 12:10:00,54.0,28.3,30.14,North,355,1.0,6.0,37,0.00,CLR,,0.00,WeatherDisplay:10.37,2013-04-04 17:10:00,
2013-04-04 12:20:00,54.6,28.1,30.13,North,6,0.0,8.0,36,0.00,CLR,,0.00,WeatherDisplay:10.37,2013-04-04 17:20:00,
2013-04-04 12:25:00,54.7,29.6,30.13,NNW,338,1.0,5.0,38,0.00,CLR,,0.00,WeatherDisplay:10.37,2013-04-04 17:25:00,
2013-04-04 12:30:00,54.4,28.6,30.12,NNW,340,3.0,6.0,37,0.00,CLR,,0.00,WeatherDisplay:10.37,2013-04-04 17:30:00,
2013-04-04 12:40:00,55.5,30.2,30.12,North,10,2.0,5.0,38,0.00,CLR,,0.00,WeatherDisplay:10.37,2013-04-04 17:40:00,
2013-04-04 12:45:00,55.7,29.1,30.11,North,4,2.0,7.0,36,0.00,CLR,,0.00,WeatherDisplay:10.37,2013-04-04 17:45:00,
2013-04-04 12:55:00,56.0,31.4,30.12,North,358,5.0,9.0,39,0.00,CLR,,0.00,WeatherDisplay:10.37,2013-04-04 17:55:00,
2013-04-04 13:05:00,57.1,30.4,30.11,NNE,12,2.0,8.0,36,0.00,CLR,,0.00,WeatherDisplay:10.37,2013-04-04 18:05:00,
2013-04-04 13:10:00,57.5,31.4,30.11,North,351,1.0,4.0,37,0.00,CLR,,0.00,WeatherDisplay:10.37,2013-04-04 18:10:00,
2013-04-04 13:20:00,56.5,29.2,30.11,NW,309,2.0,6.0,35,0.00,CLR,,0.00,WeatherDisplay:10.37,2013-04-04 18:20:00,
2013-04-04 13:25:00,56.2,28.2,30.10,NW,312,1.0,8.0,34,0.00,CLR,,0.00,WeatherDisplay:10.37,2013-04-04 18:25:00,
2013-04-04 13:30:00,56.9,30.2,30.10,WNW,302,2.0,7.0,36,0.00,CLR,,0.00,WeatherDisplay:10.37,2013-04-04 18:30:00,
2013-04-04 13:40:00,57.9,29.7,30.10,NNE,26,1.0,4.0,34,0.00,CLR,,0.00,WeatherDisplay:10.37,2013-04-04 18:40:00,
2013-04-04 13:45:00,58.1,29.1,30.10,NNE,13,2.0,5.0,33,0.00,CLR,,0.00,WeatherDisplay:10.37,2013-04-04 18:45:00,
2013-04-04 13:50:00,58.3,30.1,30.10,North,9,2.0,8.0,34,0.00,CLR,,0.00,WeatherDisplay:10.37,2013-04-04 18:50:00,
2013-04-04 13:55:00,58.6,30.3,30.10,NW,321,3.0,8.0,34,0.00,CLR,,0.00,WeatherDisplay:10.37,2013-04-04 18:55:00,
2013-04-04 14:05:00,58.3,29.3,30.10,WNW,290,5.0,8.0,33,0.00,CLR,,0.00,WeatherDisplay:10.37,2013-04-04 19:05:00,
2013-04-04 14:10:00,58.7,32.5,30.09,NW,308,1.0,5.0,37,0.00,CLR,,0.00,WeatherDisplay:10.37,2013-04-04 19:10:00,
2013-04-04 14:20:00,59.7,29.8,30.09,North,350,2.0,6.0,32,0.00,CLR,,0.00,WeatherDisplay:10.37,2013-04-04 19:20:00,
2013-04-04 14:25:00,59.8,29.9,30.09,NNE,15,3.0,7.0,32,0.00,CLR,,0.00,WeatherDisplay:10.37,2013-04-04 19:25:00,
2013-04-04 14:30:00,59.5,29.6,30.09,NNE,23,2.0,5.0,32,0.00,CLR,,0.00,WeatherDisplay:10.37,2013-04-04 19:30:00,
2013-04-04 14:40:00,59.6,28.9,30.08,North,2,2.0,9.0,31,0.00,CLR,,0.00,WeatherDisplay:10.37,2013-04-04 19:40:00,
2013-04-04 14:50:00,60.0,29.2,30.08,NNE,27,1.0,9.0,31,0.00,CLR,,0.00,WeatherDisplay:10.37,2013-04-04 19:50:00,
2013-04-04 14:55:00,60.6,30.5,30.07,North,7,5.0,8.0,32,0.00,CLR,,0.00,WeatherDisplay:10.37,2013-04-04 19:55:00,
2013-04-04 15:05:00,61.1,29.4,30.07,NW,309,3.0,8.0,30,0.00,CLR,,0.00,WeatherDisplay:10.37,2013-04-04 20:05:00,
2013-04-04 15:10:00,61.1,28.5,30.07,WNW,296,2.0,7.0,29,0.00,CLR,,0.00,WeatherDisplay:10.37,2013-04-04 20:10:00,
2013-04-04 15:15:00,61.2,29.5,30.07,NW,307,5.0,7.0,30,0.00,CLR,,0.00,WeatherDisplay:10.37,2013-04-04 20:15:00,
2013-04-04 15:20:00,61.4,30.5,30.07,NW,317,2.0,6.0,31,0.00,CLR,,0.00,WeatherDisplay:10.37,2013-04-04 20:20:00,
2013-04-04 15:30:00,61.0,27.7,30.06,NNW,330,2.0,8.0,28,0.00,CLR,,0.00,WeatherDisplay:10.37,2013-04-04 20:30:00,
2013-04-04 15:35:00,61.2,26.9,30.06,NNW,339,1.0,7.0,27,0.00,CLR,,0.00,WeatherDisplay:10.37,2013-04-04 20:35:00,
2013-04-04 15:45:00,61.8,27.5,30.06,NNE,17,3.0,10.0,27,0.00,CLR,,0.00,WeatherDisplay:10.37,2013-04-04 20:45:00,
2013-04-04 15:50:00,61.9,28.4,30.06,NNE,20,3.0,9.0,28,0.00,CLR,,0.00,WeatherDisplay:10.37,2013-04-04 20:50:00,
2013-04-04 16:00:00,62.5,28.9,30.06,WNW,291,0.0,4.0,28,0.00,CLR,,0.00,WeatherDisplay:10.37,2013-04-04 21:00:00,
2013-04-04 16:05:00,62.6,29.0,30.05,West,275,1.0,5.0,28,0.00,CLR,,0.00,WeatherDisplay:10.37,2013-04-04 21:05:00,
2013-04-04 16:10:00,63.1,32.7,30.06,WNW,301,1.0,5.0,32,0.00,CLR,,0.00,WeatherDisplay:10.37,2013-04-04 21:10:00,
2013-04-04 16:20:00,62.8,28.3,30.05,NW,314,1.0,5.0,27,0.00,CLR,,0.00,WeatherDisplay:10.37,2013-04-04 21:20:00,
2013-04-04 16:30:00,63.0,31.9,30.05,NNW,336,3.0,7.0,31,0.00,CLR,,0.00,WeatherDisplay:10.37,2013-04-04 21:30:00,
2013-04-04 16:40:00,63.4,29.7,30.05,NNW,331,3.0,7.0,28,0.00,CLR,,0.00,WeatherDisplay:10.37,2013-04-04 21:40:00,
2013-04-04 16:45:00,63.3,29.6,30.05,NW,306,1.0,7.0,28,0.00,CLR,,0.00,WeatherDisplay:10.37,2013-04-04 21:45:00,
2013-04-04 16:50:00,63.1,30.3,30.05,NW,319,0.0,5.0,29,0.00,CLR,,0.00,WeatherDisplay:10.37,2013-04-04 21:50:00,
2013-04-04 17:00:00,63.2,30.4,30.05,West,278,3.0,13.0,29,0.00,CLR,,0.00,WeatherDisplay:10.37,2013-04-04 22:00:00,
2013-04-04 17:10:00,62.2,28.6,30.05,WNW,284,1.0,8.0,28,0.00,CLR,,0.00,WeatherDisplay:10.37,2013-04-04 22:10:00,
2013-04-04 17:15:00,62.6,31.5,30.04,NW,314,2.0,6.0,31,0.00,CLR,,0.00,WeatherDisplay:10.37,2013-04-04 22:15:00,
2013-04-04 17:20:00,62.9,30.9,30.04,NW,323,2.0,8.0,30,0.00,CLR,,0.00,WeatherDisplay:10.37,2013-04-04 22:20:00,
2013-04-04 17:30:00,63.1,30.3,30.04,NW,307,0.0,6.0,29,0.00,CLR,,0.00,WeatherDisplay:10.37,2013-04-04 22:30:00,
2013-04-04 17:40:00,63.4,30.6,30.05,NW,309,3.0,6.0,29,0.00,CLR,,0.00,WeatherDisplay:10.37,2013-04-04 22:40:00,
2013-04-04 17:50:00,63.1,31.1,30.04,NNW,328,3.0,8.0,30,0.00,CLR,,0.00,WeatherDisplay:10.37,2013-04-04 22:50:00,
2013-04-04 17:55:00,62.9,31.0,30.05,WNW,298,3.0,8.0,30,0.00,CLR,,0.00,WeatherDisplay:10.37,2013-04-04 22:55:00,
2013-04-04 18:00:00,62.5,30.6,30.05,NW,309,2.0,6.0,30,0.00,CLR,,0.00,WeatherDisplay:10.37,2013-04-04 23:00:00,
2013-04-04 18:05:00,62.0,31.0,30.05,NW,310,2.0,9.0,31,0.00,CLR,,0.00,WeatherDisplay:10.37,2013-04-04 23:05:00,
2013-04-04 18:10:00,61.7,29.9,30.05,NW,309,0.0,4.0,30,0.00,CLR,,0.00,WeatherDisplay:10.37,2013-04-04 23:10:00,
2013-04-04 18:20:00,61.4,31.2,30.05,NW,313,1.0,6.0,32,0.00,CLR,,0.00,WeatherDisplay:10.37,2013-04-04 23:20:00,
2013-04-04 18:25:00,61.1,31.0,30.05,NW,325,1.0,6.0,32,0.00,CLR,,0.00,WeatherDisplay:10.37,2013-04-04 23:25:00,
2013-04-04 18:30:00,60.8,30.7,30.05,WNW,303,2.0,6.0,32,0.00,CLR,,0.00,WeatherDisplay:10.37,2013-04-04 23:30:00,
2013-04-04 18:40:00,60.6,31.3,30.05,WNW,288,2.0,6.0,33,0.00,CLR,,0.00,WeatherDisplay:10.37,2013-04-04 23:40:00,
2013-04-04 18:50:00,60.7,31.4,30.04,West,281,1.0,3.0,33,0.00,CLR,,0.00,WeatherDisplay:10.37,2013-04-04 23:50:00,
2013-04-04 18:55:00,60.8,31.5,30.05,WNW,287,2.0,4.0,33,0.00,CLR,,0.00,WeatherDisplay:10.37,2013-04-04 23:55:00,
2013-04-04 19:00:00,60.6,30.5,30.05,NW,306,0.0,5.0,32,0.00,CLR,,0.00,WeatherDisplay:10.37,2013-04-05 00:00:00,
2013-04-04 19:05:00,60.3,30.3,30.04,NW,322,1.0,4.0,32,0.00,CLR,,0.00,WeatherDisplay:10.37,2013-04-05 00:05:00,
2013-04-04 19:15:00,59.8,30.6,30.05,North,1,1.0,5.0,33,0.00,CLR,,0.00,WeatherDisplay:10.37,2013-04-05 00:15:00,
2013-04-04 19:25:00,58.8,29.8,30.05,NNW,331,0.0,2.0,33,0.00,CLR,,0.00,WeatherDisplay:10.37,2013-04-05 00:25:00,
2013-04-04 19:30:00,58.5,30.9,30.05,NNW,331,0.0,1.0,35,0.00,CLR,,0.00,WeatherDisplay:10.37,2013-04-05 00:30:00,
2013-04-04 19:35:00,58.0,31.2,30.05,NNW,331,0.0,0.0,36,0.00,CLR,,0.00,WeatherDisplay:10.37,2013-04-05 00:35:00,
2013-04-04 19:40:00,57.4,30.6,30.05,NNW,331,0.0,0.0,36,0.00,CLR,,0.00,WeatherDisplay:10.37,2013-04-05 00:40:00,
2013-04-04 19:50:00,56.0,30.7,30.05,NNW,331,0.0,0.0,38,0.00,CLR,,0.00,WeatherDisplay:10.37,2013-04-05 00:50:00,
2013-04-04 19:55:00,55.3,30.7,30.05,NNW,331,0.0,0.0,39,0.00,CLR,,0.00,WeatherDisplay:10.37,2013-04-05 00:55:00,
2013-04-04 20:00:00,54.6,32.0,30.05,NNW,331,0.0,0.0,42,0.00,CLR,,0.00,WeatherDisplay:10.37,2013-04-05 01:00:00,
2013-04-04 20:05:00,54.0,31.4,30.05,NNW,331,0.0,0.0,42,0.00,CLR,,0.00,WeatherDisplay:10.37,2013-04-05 01:05:00,
2013-04-04 20:10:00,53.4,31.5,30.06,NNW,331,0.0,0.0,43,0.00,CLR,,0.00,WeatherDisplay:10.37,2013-04-05 01:10:00,
2013-04-04 20:20:00,52.5,31.8,30.05,NNW,331,0.0,0.0,45,0.00,CLR,,0.00,WeatherDisplay:10.37,2013-04-05 01:20:00,
2013-04-04 20:30:00,52.0,31.8,30.06,NNW,331,0.0,0.0,46,0.00,CLR,,0.00,WeatherDisplay:10.37,2013-04-05 01:30:00,
2013-04-04 20:40:00,51.2,31.7,30.06,NNW,331,0.0,0.0,47,0.00,CLR,,0.00,WeatherDisplay:10.37,2013-04-05 01:40:00,
2013-04-04 20:50:00,50.3,31.3,30.06,NNW,331,0.0,0.0,48,0.00,CLR,,0.00,WeatherDisplay:10.37,2013-04-05 01:50:00,
2013-04-04 20:55:00,49.8,31.4,30.06,NNW,331,0.0,0.0,49,0.00,CLR,,0.00,WeatherDisplay:10.37,2013-04-05 01:55:00,
2013-04-04 21:00:00,49.4,31.5,30.06,NNW,331,0.0,0.0,50,0.00,CLR,,0.00,WeatherDisplay:10.37,2013-04-05 02:00:00,
2013-04-04 21:10:00,48.7,31.8,30.07,NNW,331,0.0,0.0,52,0.00,CLR,,0.00,WeatherDisplay:10.37,2013-04-05 02:10:00,
2013-04-04 21:20:00,48.0,31.2,30.07,NNW,331,0.0,0.0,52,0.00,CLR,,0.00,WeatherDisplay:10.37,2013-04-05 02:20:00,
2013-04-04 21:30:00,47.4,31.1,30.07,NNW,331,0.0,0.0,53,0.00,CLR,,0.00,WeatherDisplay:10.37,2013-04-05 02:30:00,
2013-04-04 21:35:00,47.1,31.3,30.07,NNW,331,0.0,0.0,54,0.00,CLR,,0.00,WeatherDisplay:10.37,2013-04-05 02:35:00,
2013-04-04 21:40:00,46.9,32.0,30.07,NNW,331,0.0,0.0,56,0.00,CLR,,0.00,WeatherDisplay:10.37,2013-04-05 02:40:00,
2013-04-04 21:50:00,46.9,32.0,30.07,NNW,331,0.0,0.0,56,0.00,CLR,,0.00,WeatherDisplay:10.37,2013-04-05 02:50:00,
2013-04-04 21:55:00,46.9,31.6,30.07,NNW,331,0.0,0.0,55,0.00,CLR,,0.00,WeatherDisplay:10.37,2013-04-05 02:55:00,
2013-04-04 22:00:00,46.7,31.9,30.07,NNW,331,0.0,0.0,56,0.00,CLR,,0.00,WeatherDisplay:10.37,2013-04-05 03:00:00,
2013-04-04 22:05:00,46.5,31.6,30.08,NNW,331,0.0,0.0,56,0.00,CLR,,0.00,WeatherDisplay:10.37,2013-04-05 03:05:00,
2013-04-04 22:15:00,46.1,31.7,30.08,NNW,331,0.0,0.0,57,0.00,CLR,,0.00,WeatherDisplay:10.37,2013-04-05 03:15:00,
2013-04-04 22:20:00,46.1,31.7,30.08,NNW,331,0.0,2.0,57,0.00,CLR,,0.00,WeatherDisplay:10.37,2013-04-05 03:20:00,
2013-04-04 22:30:00,46.4,32.0,30.08,NNW,331,0.0,1.0,57,0.00,CLR,,0.00,WeatherDisplay:10.37,2013-04-05 03:30:00,
2013-04-04 22:40:00,46.6,32.2,30.08,NNW,331,0.0,1.0,57,0.00,CLR,,0.00,WeatherDisplay:10.37,2013-04-05 03:40:00,
2013-04-04 22:50:00,46.7,32.2,30.08,NNW,328,0.0,2.0,57,0.00,CLR,,0.00,WeatherDisplay:10.37,2013-04-05 03:50:00,
2013-04-04 23:00:00,46.2,32.2,30.08,NW,321,0.0,1.0,58,0.00,CLR,,0.00,WeatherDisplay:10.37,2013-04-05 04:00:00,
2013-04-04 23:05:00,45.9,32.4,30.08,NW,321,0.0,1.0,59,0.00,CLR,,0.00,WeatherDisplay:10.37,2013-04-05 04:05:00,
2013-04-04 23:10:00,45.6,32.1,30.08,NW,321,0.0,1.0,59,0.00,CLR,,0.00,WeatherDisplay:10.37,2013-04-05 04:10:00,
2013-04-04 23:15:00,45.3,31.8,30.08,NW,321,0.0,0.0,59,0.00,CLR,,0.00,WeatherDisplay:10.37,2013-04-05 04:15:00,
2013-04-04 23:20:00,44.9,31.9,30.08,NW,321,0.0,2.0,60,0.00,CLR,,0.00,WeatherDisplay:10.37,2013-04-05 04:20:00,
2013-04-04 23:30:00,44.3,31.7,30.08,NW,321,0.0,0.0,61,0.00,CLR,,0.00,WeatherDisplay:10.37,2013-04-05 04:30:00,
2013-04-04 23:40:00,43.8,31.6,30.08,NW,321,0.0,0.0,62,0.00,CLR,,0.00,WeatherDisplay:10.37,2013-04-05 04:40:00,
2013-04-04 23:50:00,43.4,31.6,30.09,NW,321,0.0,0.0,63,0.00,CLR,,0.00,WeatherDisplay:10.37,2013-04-05 04:50:00,